Time;durP1;ratioP1;P1;durP2;ratioP2;P2;SDS_P1;SDS_P2;PMS_P1;PMS_P2;Temp;Humidity;BMP_temperature;BMP_pressure;BME280_temperature;BME280_humidity;BME280_pressure;Samples;Min_cycle;Max_cycle;Signal;HPM_P1;HPM_P2
2021/06/23 00:01:07;;;;;;;0.00;0.00;;;;;;;17.44;54.99;102183.19;5076160;28;20037;-85
2021/06/23 00:03:34;;;;;;;0.00;0.00;;;;;;;17.42;54.53;102182.38;5076758;28;20021;-86
2021/06/23 00:06:00;;;;;;;0.10;0.10;;;;;;;17.44;54.92;102180.50;5076773;28;20040;-86
2021/06/23 00:08:27;;;;;;;0.08;0.08;;;;;;;17.30;54.38;102185.38;5075287;28;20403;-86
2021/06/23 00:10:53;;;;;;;0.10;0.10;;;;;;;17.38;54.75;102186.03;5079731;28;20024;-85
2021/06/23 00:13:21;;;;;;;0.10;0.10;;;;;;;17.31;55.23;102184.47;5076322;28;20500;-85
2021/06/23 00:15:49;;;;;;;0.38;0.38;;;;;;;17.30;54.45;102188.06;5091154;22;20040;-79
2021/06/23 00:18:15;;;;;;;0.10;0.10;;;;;;;17.28;54.27;102184.53;5075757;28;20029;-80
2021/06/23 00:20:42;;;;;;;0.05;0.05;;;;;;;17.35;54.63;102186.13;5076082;28;20503;-80
2021/06/23 00:23:08;;;;;;;0.05;0.05;;;;;;;17.30;56.10;102193.41;5074815;28;20119;-80
2021/06/23 00:25:34;;;;;;;0.00;0.00;;;;;;;17.39;54.68;102182.44;5069644;28;20079;-80
2021/06/23 00:28:01;;;;;;;0.00;0.00;;;;;;;17.30;56.09;102194.28;5065455;28;20052;-80
2021/06/23 00:30:27;;;;;;;0.25;0.25;;;;;;;17.34;55.32;102184.38;5065591;28;20060;-80
2021/06/23 00:33:01;;;;;;;0.10;0.10;;;;;;;17.36;56.29;102187.91;5072127;28;20368;-79
2021/06/23 00:35:27;;;;;;;0.00;0.00;;;;;;;17.29;56.45;102187.16;5060695;28;20059;-80
2021/06/23 00:37:53;;;;;;;0.10;0.10;;;;;;;17.28;57.73;102195.25;5066474;28;20025;-80
2021/06/23 00:40:20;;;;;;;0.00;0.00;;;;;;;17.32;56.53;102196.94;5051184;28;20473;-80
2021/06/23 00:42:47;;;;;;;0.00;0.00;;;;;;;17.31;56.34;102197.88;5059260;28;20118;-80
2021/06/23 00:45:14;;;;;;;0.10;0.10;;;;;;;17.29;56.70;102203.25;5071777;28;20033;-80
2021/06/23 00:47:44;;;;;;;0.00;0.00;;;;;;;17.34;56.00;102202.25;5062485;28;20108;-80
2021/06/23 00:50:13;;;;;;;0.00;0.00;;;;;;;17.28;56.66;102211.31;5064469;28;20231;-80
2021/06/23 00:52:40;;;;;;;0.10;0.10;;;;;;;17.31;56.59;102208.59;5070160;28;20043;-80
2021/06/23 00:55:08;;;;;;;0.10;0.10;;;;;;;17.29;57.19;102205.06;5058610;28;20029;-80
2021/06/23 00:57:37;;;;;;;0.10;0.10;;;;;;;17.33;56.91;102209.41;5051044;28;20029;-80
2021/06/23 01:00:04;;;;;;;0.47;0.47;;;;;;;17.28;57.60;102201.50;5065587;28;20024;-80
2021/06/23 01:02:31;;;;;;;0.00;0.00;;;;;;;17.33;57.11;102209.41;5075168;28;20032;-80
2021/06/23 01:04:58;;;;;;;0.00;0.00;;;;;;;17.31;57.53;102197.88;5058515;28;20112;-80
2021/06/23 01:07:25;;;;;;;0.10;0.10;;;;;;;17.30;57.27;102198.78;5070310;28;20029;-81
2021/06/23 01:09:54;;;;;;;0.10;0.10;;;;;;;17.33;57.38;102197.81;5056636;28;20036;-80
2021/06/23 01:15:08;;;;;;;0.10;0.10;;;;;;;17.26;57.35;102207.81;5075858;27;20423;-80
2021/06/23 01:17:36;;;;;;;0.00;0.00;;;;;;;17.22;58.19;102203.44;5056886;28;20056;-80
2021/06/23 01:22:51;;;;;;;0.10;0.10;;;;;;;17.19;58.75;102196.38;5131574;27;20176;-80
2021/06/23 01:25:18;;;;;;;0.10;0.10;;;;;;;17.21;58.91;102193.66;5097569;28;20036;-78
2021/06/23 01:27:46;;;;;;;0.00;0.00;;;;;;;17.22;57.48;102184.69;5090855;28;20063;-80
2021/06/23 01:30:15;;;;;;;0.10;0.10;;;;;;;17.20;57.57;102191.91;5089567;28;20430;-79
2021/06/23 01:32:41;;;;;;;0.00;0.00;;;;;;;17.14;58.93;102183.09;5090521;28;20483;-79
2021/06/23 01:35:08;;;;;;;0.20;0.20;;;;;;;17.18;58.00;102178.53;5090490;28;20067;-81
2021/06/23 01:37:35;;;;;;;0.00;0.00;;;;;;;17.17;58.34;102175.91;5090715;28;20031;-80
2021/06/23 01:40:02;;;;;;;0.00;0.00;;;;;;;17.17;58.59;102175.91;5080308;28;20480;-80
2021/06/23 01:42:28;;;;;;;0.38;0.38;;;;;;;17.14;58.27;102169.72;5083907;28;20123;-81
2021/06/23 01:44:58;;;;;;;0.10;0.10;;;;;;;17.18;58.42;102172.31;5099913;22;20051;-85
2021/06/23 01:47:24;;;;;;;1.17;1.13;;;;;;;17.19;58.28;102169.59;5090708;28;20376;-85
2021/06/23 01:49:51;;;;;;;0.00;0.00;;;;;;;17.16;59.62;102182.19;5090978;28;20028;-84
2021/06/23 01:52:17;;;;;;;0.00;0.00;;;;;;;17.16;58.33;102179.50;5090858;28;20032;-85
2021/06/23 01:54:44;;;;;;;0.00;0.00;;;;;;;17.20;57.39;102186.56;5090633;28;20487;-84
2021/06/23 01:57:14;;;;;;;0.00;0.00;;;;;;;17.20;57.63;102181.19;5090680;28;20073;-85
2021/06/23 01:59:41;;;;;;;0.17;0.17;;;;;;;17.18;57.13;102181.22;5091211;28;20028;-84
2021/06/23 02:02:20;;;;;;;0.00;0.00;;;;;;;17.18;56.70;102183.03;5090442;28;20067;-85
2021/06/23 02:04:53;;;;;;;0.00;0.00;;;;;;;17.23;56.88;102186.47;5090664;28;20028;-85
2021/06/23 02:07:29;;;;;;;;;;;;;;;17.31;56.75;102189.84;5091150;28;20025;-85
2021/06/23 02:10:24;;;;;;;0.10;0.10;;;;;;;17.21;57.00;102193.66;5090543;28;20279;-85
2021/06/23 02:15:57;;;;;;;0.03;0.03;;;;;;;17.21;56.53;102196.31;5071285;28;20398;-85
2021/06/23 02:18:28;;;;;;;0.10;0.10;;;;;;;17.23;56.61;102197.19;5070949;28;20446;-84
2021/06/23 02:20:58;;;;;;;0.10;0.10;;;;;;;17.22;57.33;102196.31;5070948;28;20029;-85
2021/06/23 02:23:25;;;;;;;0.10;0.10;;;;;;;17.19;57.62;102198.19;5071798;28;20033;-84
2021/06/23 02:25:52;;;;;;;0.10;0.10;;;;;;;17.18;57.37;102204.47;5071318;28;20032;-84
2021/06/23 02:28:19;;;;;;;0.00;0.00;;;;;;;17.13;56.99;102197.44;5071353;28;20499;-84
2021/06/23 02:30:45;;;;;;;0.10;0.10;;;;;;;17.11;57.58;102204.63;5070751;28;20094;-84
2021/06/23 02:33:12;;;;;;;0.10;0.10;;;;;;;17.09;59.34;102217.16;5071176;28;20068;-84
2021/06/23 02:35:40;;;;;;;0.10;0.10;;;;;;;17.08;58.13;102215.38;5070987;28;20047;-84
2021/06/23 02:38:07;;;;;;;3.10;1.00;;;;;;;17.06;57.32;102219.94;5071058;28;20029;-84
2021/06/23 02:40:34;;;;;;;0.10;0.10;;;;;;;17.05;57.71;102219.97;5070731;28;20037;-84
2021/06/23 02:43:00;;;;;;;0.03;0.03;;;;;;;17.03;58.12;102222.66;5070670;28;20057;-84
2021/06/23 02:45:28;;;;;;;0.00;0.00;;;;;;;17.00;59.13;102228.09;5070701;28;20044;-84
2021/06/23 02:47:55;;;;;;;0.00;0.00;;;;;;;16.94;60.74;102225.59;5071133;28;20039;-84
2021/06/23 02:50:23;;;;;;;0.20;0.20;;;;;;;16.92;60.06;102230.09;5070650;28;20403;-84
2021/06/23 02:52:50;;;;;;;0.00;0.00;;;;;;;16.90;60.73;102226.56;5070812;28;20036;-84
2021/06/23 02:55:20;;;;;;;0.00;0.00;;;;;;;16.85;58.41;102234.69;5070014;28;20391;-86
2021/06/23 02:57:48;;;;;;;0.00;0.00;;;;;;;16.85;59.39;102241.81;5070575;28;20501;-84
2021/06/23 03:00:15;;;;;;;0.10;0.10;;;;;;;16.83;59.86;102247.22;5070433;28;20079;-84
2021/06/23 03:02:41;;;;;;;0.13;0.13;;;;;;;16.80;60.06;102242.81;5070517;28;20021;-84
2021/06/23 03:05:08;;;;;;;0.08;0.08;;;;;;;16.80;59.44;102247.31;5070463;28;20017;-84
2021/06/23 03:07:34;;;;;;;0.00;0.00;;;;;;;16.75;61.07;102251.88;5069441;28;20025;-84
2021/06/23 03:10:05;;;;;;;0.00;0.00;;;;;;;16.76;60.19;102245.59;5071367;28;20102;-84
2021/06/23 03:12:32;;;;;;;0.00;0.00;;;;;;;16.68;61.74;102248.47;5070474;28;20078;-84
2021/06/23 03:14:58;;;;;;;0.00;0.00;;;;;;;16.74;60.87;102256.34;5070566;28;20044;-84
2021/06/23 03:17:25;;;;;;;0.00;0.00;;;;;;;16.71;62.16;102248.41;5070154;28;20025;-83
2021/06/23 03:19:51;;;;;;;0.00;0.00;;;;;;;16.73;61.42;102246.56;5069959;28;20464;-84
2021/06/23 03:22:17;;;;;;;0.00;0.00;;;;;;;16.70;61.46;102254.66;5070390;28;20028;-84
2021/06/23 03:24:43;;;;;;;0.10;0.10;;;;;;;16.73;61.66;102257.25;5070044;28;20480;-83
2021/06/23 03:27:10;;;;;;;0.00;0.00;;;;;;;16.73;61.82;102251.91;5057199;28;20029;-84
2021/06/23 03:29:37;;;;;;;0.03;0.03;;;;;;;16.71;62.86;102253.75;5057056;28;20372;-85
2021/06/23 03:32:09;;;;;;;0.00;0.00;;;;;;;16.73;62.92;102254.59;5057257;28;20041;-83
2021/06/23 03:34:36;;;;;;;0.10;0.10;;;;;;;16.66;63.08;102258.34;5056556;28;20396;-84
2021/06/23 03:37:03;;;;;;;0.10;0.10;;;;;;;16.61;63.28;102252.19;5056698;28;20033;-84
2021/06/23 03:39:30;;;;;;;0.00;0.00;;;;;;;16.63;62.54;102255.72;5072248;28;20025;-84
2021/06/23 03:41:56;;;;;;;0.00;0.00;;;;;;;16.62;62.79;102253.94;5056761;28;20040;-84
2021/06/23 03:44:22;;;;;;;0.10;0.10;;;;;;;16.62;63.11;102252.19;5056066;28;20064;-83
2021/06/23 03:46:49;;;;;;;0.10;0.10;;;;;;;16.58;63.65;102252.28;5055484;28;20056;-84
2021/06/23 03:49:15;;;;;;;0.10;0.10;;;;;;;16.58;63.17;102261.16;5056062;28;20043;-84
2021/06/23 03:51:41;;;;;;;0.05;0.05;;;;;;;16.56;63.46;102260.34;5056266;28;20109;-83
2021/06/23 03:54:08;;;;;;;0.00;0.00;;;;;;;16.58;63.62;102258.50;5055971;28;20372;-84
2021/06/23 03:56:34;;;;;;;0.00;0.00;;;;;;;16.61;63.46;102257.53;5056135;28;20433;-84
2021/06/23 03:59:00;;;;;;;0.10;0.10;;;;;;;16.62;64.09;102259.31;5056447;28;20020;-84
2021/06/23 04:01:26;;;;;;;0.00;0.00;;;;;;;16.60;64.07;102261.16;5056156;28;20021;-84
2021/06/23 04:03:53;;;;;;;0.00;0.00;;;;;;;16.62;64.11;102264.66;5055768;28;20063;-84
2021/06/23 04:06:19;;;;;;;0.00;0.00;;;;;;;16.68;63.94;102261.84;5055727;28;20024;-85
2021/06/23 04:08:46;;;;;;;0.10;0.10;;;;;;;16.67;64.02;102257.41;5056037;28;20470;-84
2021/06/23 04:11:12;;;;;;;0.10;0.10;;;;;;;16.67;63.47;102257.41;5056004;28;20025;-84
2021/06/23 04:13:38;;;;;;;0.10;0.10;;;;;;;16.65;63.78;102262.78;5055965;28;20392;-84
2021/06/23 04:16:04;;;;;;;0.43;0.43;;;;;;;16.66;62.90;102261.00;5055666;28;20025;-83
2021/06/23 04:18:31;;;;;;;0.05;0.05;;;;;;;16.64;62.96;102268.19;5055932;28;20021;-85
2021/06/23 04:20:57;;;;;;;0.10;0.10;;;;;;;16.66;62.85;102271.72;5055868;28;20032;-85
2021/06/23 04:23:23;;;;;;;0.00;0.00;;;;;;;16.66;63.08;102267.22;5055621;28;20115;-85
2021/06/23 04:25:49;;;;;;;0.05;0.05;;;;;;;16.67;63.34;102273.44;5054941;28;20125;-84
2021/06/23 04:28:16;;;;;;;0.05;0.05;;;;;;;16.65;62.97;102269.94;5055755;28;20052;-85
2021/06/23 04:30:42;;;;;;;0.52;0.52;;;;;;;16.70;62.81;102273.41;5055282;28;20040;-85
2021/06/23 04:33:08;;;;;;;0.40;0.40;;;;;;;16.79;62.71;102265.16;5055812;28;20029;-84
2021/06/23 04:35:35;;;;;;;0.00;0.00;;;;;;;16.86;62.54;102267.69;5055090;28;20043;-84
2021/06/23 04:38:01;;;;;;;0.10;0.10;;;;;;;16.89;62.42;102267.63;5054546;28;20059;-85
2021/06/23 04:40:27;;;;;;;0.47;0.47;;;;;;;16.94;62.55;102271.09;5054660;28;20083;-83
2021/06/23 04:42:53;;;;;;;0.00;0.00;;;;;;;17.04;62.38;102266.41;5055661;28;20040;-85
2021/06/23 04:45:20;;;;;;;0.20;0.20;;;;;;;17.09;61.58;102267.16;5055174;28;20025;-85
2021/06/23 04:47:46;;;;;;;0.10;0.10;;;;;;;17.18;61.49;102271.41;5055726;28;20052;-85
2021/06/23 04:50:13;;;;;;;0.10;0.10;;;;;;;17.20;59.84;102261.56;5054959;28;20502;-84
2021/06/23 04:52:39;;;;;;;0.00;0.00;;;;;;;17.30;60.39;102268.44;5053919;28;20037;-84
2021/06/23 04:55:07;;;;;;;0.10;0.10;;;;;;;17.41;60.44;102266.34;5055056;28;20447;-85
2021/06/23 04:57:34;;;;;;;0.00;0.00;;;;;;;17.36;60.23;102260.22;5055428;28;20060;-85
2021/06/23 05:00:00;;;;;;;0.00;0.00;;;;;;;17.37;60.40;102264.69;5055108;28;20029;-85
2021/06/23 05:02:26;;;;;;;0.20;0.20;;;;;;;17.36;60.71;102260.22;5055304;28;20103;-85
2021/06/23 05:04:52;;;;;;;0.10;0.10;;;;;;;17.47;59.54;102265.31;5055149;28;20037;-85
2021/06/23 05:07:18;;;;;;;0.08;0.05;;;;;;;17.53;59.36;102265.13;5054964;28;20025;-86
2021/06/23 05:09:45;;;;;;;0.10;0.10;;;;;;;17.60;59.85;102260.50;5054754;28;20025;-82
2021/06/23 05:12:12;;;;;;;0.57;0.30;;;;;;;17.66;60.14;102264.81;5054779;28;20110;-83
2021/06/23 05:14:38;;;;;;;0.45;0.45;;;;;;;17.69;61.27;102265.59;5054167;28;20037;-84
2021/06/23 05:17:05;;;;;;;0.10;0.10;;;;;;;17.73;61.10;102269.09;5054928;28;20059;-86
2021/06/23 05:19:31;;;;;;;0.00;0.00;;;;;;;17.72;60.99;102268.22;5054424;28;20361;-83
2021/06/23 05:22:01;;;;;;;0.43;0.43;;;;;;;17.76;59.79;102272.56;5054916;28;20033;-84
2021/06/23 05:24:27;;;;;;;3.10;0.63;;;;;;;17.67;58.67;102267.47;5053766;28;20095;-84
2021/06/23 05:26:53;;;;;;;0.17;0.17;;;;;;;17.69;58.83;102276.31;5053312;28;20384;-82
2021/06/23 05:29:20;;;;;;;0.10;0.10;;;;;;;17.73;59.77;102283.38;5054411;28;20044;-85
2021/06/23 05:31:46;;;;;;;0.00;0.00;;;;;;;17.75;59.76;102283.34;5054029;28;20529;-84
2021/06/23 05:34:12;;;;;;;0.20;0.15;;;;;;;17.82;58.79;102276.00;5054231;28;20484;-85
2021/06/23 05:36:38;;;;;;;0.10;0.10;;;;;;;17.76;57.95;102274.38;5054926;28;20086;-85
2021/06/23 05:39:05;;;;;;;0.10;0.10;;;;;;;17.91;57.79;102273.06;5054487;28;20028;-84
2021/06/23 05:41:31;;;;;;;0.00;0.00;;;;;;;17.98;58.08;102266.66;5054114;28;20025;-83
2021/06/23 05:43:57;;;;;;;0.00;0.00;;;;;;;18.05;57.50;102283.44;5054181;28;20028;-84
2021/06/23 05:46:24;;;;;;;0.05;0.05;;;;;;;18.13;57.44;102275.16;5054392;28;20079;-83
2021/06/23 05:48:50;;;;;;;0.10;0.10;;;;;;;18.15;57.13;102281.38;5054283;28;20021;-83
2021/06/23 05:51:16;;;;;;;0.43;0.43;;;;;;;18.20;56.79;102279.44;5054086;28;20350;-83
2021/06/23 05:53:43;;;;;;;0.10;0.10;;;;;;;18.21;56.20;102278.50;5052477;28;20388;-83
2021/06/23 05:56:09;;;;;;;0.10;0.10;;;;;;;18.22;56.05;102274.91;5053974;28;20025;-83
2021/06/23 05:58:35;;;;;;;0.10;0.10;;;;;;;18.20;56.99;102280.28;5054276;28;20029;-82
2021/06/23 06:01:02;;;;;;;0.00;0.00;;;;;;;18.22;56.27;102280.28;5053860;28;20029;-83
2021/06/23 06:03:29;;;;;;;0.10;0.10;;;;;;;18.28;56.39;102277.41;5054167;28;20021;-85
2021/06/23 06:05:55;;;;;;;0.10;0.10;;;;;;;18.32;56.49;102273.72;5055268;28;20538;-84
2021/06/23 06:08:21;;;;;;;0.10;0.10;;;;;;;18.28;55.49;102277.41;5053604;28;20036;-84
2021/06/23 06:10:47;;;;;;;0.13;0.13;;;;;;;18.36;55.48;102278.03;5052576;28;20025;-84
2021/06/23 06:13:13;;;;;;;0.10;0.10;;;;;;;18.42;54.64;102279.69;5048429;28;20033;-83
2021/06/23 06:15:39;;;;;;;0.10;0.10;;;;;;;18.48;54.20;102270.53;5052699;28;20384;-84
2021/06/23 06:18:07;;;;;;;0.10;0.10;;;;;;;18.32;55.81;102281.75;5053572;28;20113;-84
2021/06/23 06:20:34;;;;;;;0.00;0.00;;;;;;;18.52;54.51;102282.97;5053510;28;20092;-84
2021/06/23 06:23:01;;;;;;;0.20;0.20;;;;;;;18.49;54.32;102278.56;5053280;28;20033;-83
2021/06/23 06:25:28;;;;;;;0.00;0.00;;;;;;;18.48;52.62;102286.66;5053603;28;20032;-83
2021/06/23 06:27:54;;;;;;;0.10;0.10;;;;;;;18.56;54.37;102284.63;5053469;28;20086;-84
2021/06/23 06:30:22;;;;;;;0.08;0.08;;;;;;;18.52;54.20;102286.53;5053519;28;20043;-83
2021/06/23 06:32:50;;;;;;;0.10;0.10;;;;;;;18.64;53.75;102285.28;5053270;28;20052;-82
2021/06/23 06:35:16;;;;;;;0.35;0.35;;;;;;;18.68;53.42;102288.72;5053211;28;20033;-84
2021/06/23 06:37:42;;;;;;;0.10;0.10;;;;;;;18.71;53.07;102297.56;5053078;28;20488;-84
2021/06/23 06:40:09;;;;;;;0.28;0.28;;;;;;;18.75;53.72;102299.25;5053643;28;20029;-84
2021/06/23 06:42:36;;;;;;;4.65;2.13;;;;;;;18.83;53.69;102295.41;5052751;28;20438;-83
2021/06/23 06:45:03;;;;;;;0.10;0.10;;;;;;;18.79;53.21;102296.44;5052659;28;20026;-84
2021/06/23 06:47:29;;;;;;;0.10;0.10;;;;;;;18.83;51.48;102292.72;5052553;28;20074;-84
2021/06/23 06:49:55;;;;;;;0.10;0.10;;;;;;;18.83;51.73;102281.97;5052996;28;20032;-85
2021/06/23 06:52:21;;;;;;;0.00;0.00;;;;;;;19.02;53.81;102291.25;5052422;28;20036;-84
2021/06/23 06:54:47;;;;;;;0.10;0.10;;;;;;;19.03;53.26;102295.69;5053251;28;20399;-84
2021/06/23 06:57:13;;;;;;;0.08;0.08;;;;;;;19.05;51.50;102288.47;5053699;28;20029;-84
2021/06/23 06:59:40;;;;;;;0.00;0.00;;;;;;;19.21;51.62;102296.03;5052872;28;20484;-84
2021/06/23 07:02:07;;;;;;;0.30;0.30;;;;;;;19.27;51.25;102293.13;5055593;28;20480;-84
2021/06/23 07:04:33;;;;;;;0.68;0.68;;;;;;;19.20;49.65;102299.63;5056743;28;20079;-84
2021/06/23 07:06:59;;;;;;;2.25;1.08;;;;;;;19.31;50.04;102299.28;5056747;28;20033;-84
2021/06/23 07:09:26;;;;;;;0.00;0.00;;;;;;;19.40;50.18;102305.22;5056772;28;20020;-84
2021/06/23 07:11:52;;;;;;;0.00;0.00;;;;;;;19.45;50.52;102301.50;5058389;28;20096;-92
2021/06/23 07:14:21;;;;;;;1.10;1.05;;;;;;;19.53;49.80;102302.13;5056594;28;20124;-87
2021/06/23 07:16:47;;;;;;;0.00;0.00;;;;;;;19.55;50.66;102294.88;5041984;28;20035;-86
2021/06/23 07:19:14;;;;;;;0.00;0.00;;;;;;;19.54;50.16;102295.81;5056456;28;20029;-87
2021/06/23 07:21:41;;;;;;;0.28;0.28;;;;;;;19.56;50.42;102294.84;5055099;28;20021;-84
2021/06/23 07:24:08;;;;;;;0.00;0.00;;;;;;;19.50;50.08;102302.22;5055097;28;20648;-85
2021/06/23 07:26:34;;;;;;;0.13;0.13;;;;;;;19.56;49.56;102299.31;5055110;28;20084;-82
2021/06/23 07:29:03;;;;;;;0.00;0.00;;;;;;;19.54;49.56;102310.13;5051841;28;20025;-82
2021/06/23 07:37:07;;;;;;;0.05;0.05;;;;;;;19.73;50.40;102306.81;5068497;28;20154;-83
2021/06/23 07:39:35;;;;;;;0.00;0.00;;;;;;;19.83;49.63;102302.00;5066959;28;20039;-83
2021/06/23 07:42:05;;;;;;;0.03;0.03;;;;;;;19.93;49.09;102314.19;5068555;28;20025;-83
2021/06/23 07:44:36;;;;;;;0.03;0.03;;;;;;;19.84;50.42;102311.84;5061764;28;20607;-83
2021/06/23 07:47:07;;;;;;;0.10;0.10;;;;;;;19.98;49.72;102306.81;5059293;28;20119;-83
2021/06/23 07:49:36;;;;;;;0.10;0.10;;;;;;;19.98;49.25;102309.50;5057131;28;20110;-84
2021/06/23 08:08:10;;;;;;;0.10;0.10;;;;;;;20.33;49.44;102306.44;5057507;28;20435;-86
2021/06/23 08:08:59;;;;;;;0.10;0.10;;;;;;;20.61;48.57;102292.81;5048282;28;20400;-85
2021/06/23 08:11:31;;;;;;;0.68;0.68;;;;;;;20.49;46.91;102304.06;5053070;28;20025;-84
2021/06/23 08:13:58;;;;;;;0.00;0.00;;;;;;;20.66;47.59;102296.19;5054930;28;20040;-84
2021/06/23 08:16:24;;;;;;;0.08;0.08;;;;;;;20.76;47.56;102303.94;5048050;28;20118;-84
2021/06/23 08:18:51;;;;;;;0.10;0.10;;;;;;;20.86;47.70;102299.94;5048034;28;20112;-84
2021/06/23 08:21:17;;;;;;;0.10;0.10;;;;;;;21.01;47.69;102303.84;5048000;28;20032;-85
2021/06/23 08:23:43;;;;;;;0.10;0.10;;;;;;;20.95;47.66;102302.25;5049082;28;21449;-84
2021/06/23 08:26:09;;;;;;;0.10;0.10;;;;;;;20.80;45.57;102302.88;5068463;28;20090;-85
2021/06/23 08:28:36;;;;;;;0.10;0.10;;;;;;;20.96;46.70;102301.31;5067945;28;20475;-84
2021/06/23 08:31:02;;;;;;;0.10;0.10;;;;;;;21.13;46.22;102310.53;5068177;28;20036;-84
2021/06/23 08:33:28;;;;;;;0.22;0.22;;;;;;;21.08;45.72;102307.16;5054538;28;20172;-85
2021/06/23 08:35:55;;;;;;;0.10;0.10;;;;;;;21.17;45.73;102306.75;5048237;28;20029;-84
2021/06/23 08:38:22;;;;;;;0.10;0.10;;;;;;;21.21;45.24;102304.81;5066864;28;20037;-85
2021/06/23 08:40:49;;;;;;;0.40;0.30;;;;;;;21.33;45.50;102305.19;5065102;28;20029;-84
2021/06/23 08:43:17;;;;;;;0.10;0.10;;;;;;;21.38;45.23;102304.97;5068425;28;20016;-85
2021/06/23 08:45:44;;;;;;;0.10;0.10;;;;;;;21.43;44.86;102303.00;5067635;28;20040;-84
2021/06/23 08:48:12;;;;;;;0.10;0.10;;;;;;;21.45;44.38;102308.31;5067615;28;20029;-84
2021/06/23 08:50:38;;;;;;;0.10;0.10;;;;;;;21.46;44.41;102304.69;5067918;28;20438;-86
2021/06/23 08:53:05;;;;;;;0.10;0.10;;;;;;;21.55;45.22;102308.78;5067765;28;20017;-86
2021/06/23 08:55:31;;;;;;;0.00;0.00;;;;;;;21.44;44.43;102306.53;5067410;28;20124;-85
2021/06/23 08:57:59;;;;;;;0.45;0.45;;;;;;;21.46;43.68;102305.53;5067781;28;20547;-85
2021/06/23 09:00:26;;;;;;;0.10;0.10;;;;;;;21.49;44.09;102304.53;5061770;28;20036;-83
2021/06/23 09:02:58;;;;;;;0.00;0.00;;;;;;;21.56;44.95;102305.16;5056182;28;20049;-84
2021/06/23 09:05:24;;;;;;;0.10;0.10;;;;;;;21.56;45.41;102306.06;5050311;28;20040;-84
2021/06/23 09:07:56;;;;;;;0.10;0.10;;;;;;;21.44;44.44;102303.84;5043933;28;20082;-83
2021/06/23 09:23:56;;;;;;;0.10;0.10;;;;;;;20.92;48.11;102306.88;5089160;27;20400;-86
2021/06/23 09:32:05;;;;;;;0.10;0.10;;;;;;;20.93;47.36;102312.22;5080254;27;20415;-86
2021/06/23 09:37:35;;;;;;;0.10;0.10;;;;;;;21.00;45.17;102318.25;5084142;28;20052;-84
2021/06/23 09:43:22;;;;;;;0.10;0.10;;;;;;;21.16;45.82;102329.28;5083042;27;20790;-85
2021/06/23 09:45:53;;;;;;;0.93;0.93;;;;;;;21.11;45.44;102320.47;5049794;28;20037;-85
2021/06/23 09:48:20;;;;;;;0.10;0.10;;;;;;;21.11;45.60;102326.78;5028852;28;20604;-85
2021/06/23 09:50:46;;;;;;;0.10;0.10;;;;;;;21.23;45.81;102314.59;5048950;28;20045;-86
2021/06/23 09:53:13;;;;;;;0.10;0.10;;;;;;;21.36;45.85;102324.84;5049195;28;20108;-86
2021/06/23 09:55:42;;;;;;;0.10;0.10;;;;;;;21.31;45.93;102317.84;5049070;28;20025;-85
2021/06/23 09:58:14;;;;;;;0.10;0.10;;;;;;;21.52;46.26;102323.28;5046900;28;20594;-85
2021/06/23 10:03:54;;;;;;;0.10;0.10;;;;;;;21.57;45.65;102318.59;5120973;27;20407;-85
2021/06/23 10:06:23;;;;;;;0.20;0.20;;;;;;;21.55;45.20;102320.44;5084947;28;20032;-86
2021/06/23 10:08:50;;;;;;;0.10;0.10;;;;;;;21.50;46.81;102319.78;5088547;28;20540;-86
2021/06/23 10:11:31;;;;;;;0.00;0.00;;;;;;;21.36;46.14;102324.84;5086362;28;20063;-82
2021/06/23 10:13:57;;;;;;;0.10;0.10;;;;;;;21.44;46.50;102317.34;5089408;28;20040;-85
2021/06/23 10:16:25;;;;;;;0.30;0.30;;;;;;;21.47;47.34;102326.16;5089152;28;20141;-85
2021/06/23 10:18:54;;;;;;;0.10;0.10;;;;;;;21.55;47.50;102325.84;5089859;28;20024;-86
2021/06/23 10:21:21;;;;;;;0.10;0.10;;;;;;;21.70;46.92;102323.47;5084845;28;20032;-86
2021/06/23 10:23:48;;;;;;;0.10;0.10;;;;;;;21.78;47.08;102326.69;5090517;28;20059;-85
2021/06/23 10:26:18;;;;;;;0.10;0.10;;;;;;;22.07;45.88;102329.91;5090430;28;20028;-86
2021/06/23 10:28:50;;;;;;;0.20;0.20;;;;;;;22.25;45.09;102336.31;5091302;28;20028;-84
2021/06/23 10:31:22;;;;;;;0.15;0.15;;;;;;;22.16;44.59;102329.50;5057991;28;20076;-85
2021/06/23 10:33:49;;;;;;;0.03;0.03;;;;;;;22.41;44.89;102325.72;5070726;28;20037;-86
2021/06/23 10:36:15;;;;;;;0.10;0.10;;;;;;;22.59;44.48;102327.56;5069595;28;20443;-84
2021/06/23 10:38:44;;;;;;;0.10;0.10;;;;;;;22.54;44.66;102326.91;5067548;28;20047;-85
2021/06/23 10:41:11;;;;;;;0.10;0.10;;;;;;;22.62;43.57;102321.13;5067691;28;20115;-85
2021/06/23 10:43:38;;;;;;;0.00;0.00;;;;;;;22.52;43.93;102328.78;5069417;28;20029;-85
2021/06/23 10:46:04;;;;;;;0.13;0.13;;;;;;;22.47;43.53;102333.53;5069429;28;20033;-85
2021/06/23 10:48:53;;;;;;;0.00;0.00;;;;;;;22.58;43.95;102319.50;5069052;28;20035;-85
2021/06/23 10:51:25;;;;;;;0.20;0.20;;;;;;;22.74;43.13;102323.25;5068829;28;20029;-86
2021/06/23 10:53:51;;;;;;;1.00;0.90;;;;;;;22.64;44.01;102315.66;5069098;28;20375;-85
2021/06/23 10:56:41;;;;;;;0.80;0.73;;;;;;;22.99;43.10;102321.16;5069363;28;20032;-85
2021/06/23 10:59:35;;;;;;;0.10;0.10;;;;;;;23.02;42.36;102319.19;5068892;28;20025;-86
2021/06/23 11:02:17;;;;;;;0.10;0.10;;;;;;;23.32;42.62;102324.03;5068678;28;20037;-85
2021/06/23 11:07:42;;;;;;;0.10;0.10;;;;;;;23.50;43.58;102322.25;5090099;27;20422;-85
2021/06/23 11:15:49;;;;;;;0.10;0.10;;;;;;;24.04;41.07;102315.88;5026153;28;20352;-85
2021/06/23 11:32:02;;;;;;;0.25;0.25;;;;;;;24.68;40.10;102321.44;5090278;27;20435;-87
2021/06/23 11:34:51;;;;;;;0.30;0.30;;;;;;;24.62;39.71;102322.59;5057787;28;20032;-87
2021/06/23 11:37:20;;;;;;;0.20;0.20;;;;;;;24.31;39.21;102318.03;5030115;28;20036;-86
2021/06/23 11:39:46;;;;;;;0.22;0.22;;;;;;;24.10;39.91;102315.53;5033111;28;20061;-85
2021/06/23 11:42:13;;;;;;;0.10;0.10;;;;;;;23.99;39.88;102320.63;5030418;28;20034;-85
2021/06/23 11:44:40;;;;;;;0.08;0.08;;;;;;;24.03;39.99;102319.53;5030200;28;20026;-86
2021/06/23 11:47:07;;;;;;;0.10;0.10;;;;;;;23.86;41.08;102324.00;5030277;28;20025;-86
2021/06/23 11:49:36;;;;;;;0.10;0.10;;;;;;;23.56;40.72;102311.13;5029826;28;20110;-85
2021/06/23 11:52:05;;;;;;;0.20;0.20;;;;;;;23.19;40.96;102318.38;5029616;28;20537;-85
2021/06/23 11:54:31;;;;;;;0.10;0.10;;;;;;;23.46;41.16;102314.38;5029660;28;20041;-86
2021/06/23 11:56:58;;;;;;;0.10;0.10;;;;;;;23.26;41.72;102319.84;5029792;28;20029;-86
2021/06/23 11:59:24;;;;;;;0.13;0.13;;;;;;;23.08;42.42;102318.03;5030438;28;20079;-87
2021/06/23 12:01:51;;;;;;;0.10;0.10;;;;;;;22.75;41.93;102324.09;5030329;28;20022;-87
2021/06/23 12:04:17;;;;;;;0.43;0.43;;;;;;;22.64;41.44;102323.75;5029815;28;20113;-87
2021/06/23 12:06:45;;;;;;;0.57;0.50;;;;;;;22.57;41.36;102324.03;5035906;28;20120;-87
2021/06/23 12:09:12;;;;;;;0.10;0.10;;;;;;;22.62;41.62;102319.28;5042704;28;20384;-88
2021/06/23 12:11:38;;;;;;;0.10;0.10;;;;;;;22.71;41.97;102317.09;5050052;28;20037;-87
2021/06/23 12:14:04;;;;;;;0.00;0.00;;;;;;;22.80;41.84;102313.94;5049966;28;20392;-88
2021/06/23 12:16:30;;;;;;;7.97;1.95;;;;;;;22.84;42.96;102315.56;5036793;28;20502;-87
2021/06/23 12:18:56;;;;;;;0.10;0.10;;;;;;;22.91;42.27;102308.91;5029802;28;20037;-87
2021/06/23 12:21:23;;;;;;;0.10;0.10;;;;;;;23.01;41.88;102312.03;5029700;28;20034;-87
2021/06/23 12:23:49;;;;;;;0.10;0.10;;;;;;;23.28;42.42;102308.94;5028840;28;20109;-88
2021/06/23 12:26:21;;;;;;;1.02;0.95;;;;;;;23.42;41.28;102300.13;5029604;28;20033;-89
2021/06/23 12:28:48;;;;;;;1.38;0.80;;;;;;;23.52;40.31;102298.69;5029549;28;20108;-88
2021/06/23 12:31:14;;;;;;;0.03;0.03;;;;;;;23.80;40.97;102307.19;5028968;28;20042;-87
2021/06/23 12:33:40;;;;;;;0.10;0.10;;;;;;;23.73;39.27;102302.09;5029274;28;20392;-87
2021/06/23 12:36:06;;;;;;;0.20;0.20;;;;;;;24.14;39.47;102300.88;5029335;28;20030;-88
2021/06/23 12:38:33;;;;;;;0.38;0.38;;;;;;;24.35;38.55;102296.09;5029175;28;20393;-88
2021/06/23 12:40:59;;;;;;;2.22;1.10;;;;;;;24.55;39.29;102297.69;5036319;28;20116;-84
2021/06/23 12:43:25;;;;;;;0.85;0.85;;;;;;;24.62;39.61;102294.63;5032709;28;20026;-86
2021/06/23 12:45:52;;;;;;;0.55;0.55;;;;;;;24.90;38.48;102293.09;5032912;28;20034;-86